FAOB

Overberg Airport

Overberg, South Africa
METAR FAOB 191700Z AUTO 30011KT //// // ////// 14/10 Q1014
Observed Flight Rules
Aug-19 @ 17:00 UTC (14 minutes ago)
Wind
300° at 11 knots
Temperatures Readings
Current 14°C / 57°F
Dewpoint 10°C / 50°F
Humidity 77%
Altimeter 29.94" Hg
Pressure 1014 hPa
Elevation 75
METAR FAOB 191700Z AUTO 30011KT //// // ////// 14/10 Q1014
Observed Flight Rules
Aug-19 @ 17:00 UTC
(14 minutes ago)
Wind
300° at 11 knots
Temperature Dewpoint
14°C / 57°F 10°C / 50°F
Humidity Altimeter Pressure
77% 29.94" Hg 1014 hPa